createdAt,value
2023-05-24T00:00:38.072Z,5.88
2023-05-24T00:03:07.167Z,6.00
2023-05-24T00:05:37.957Z,6.16
2023-05-24T00:08:06.244Z,6.03
2023-05-24T00:10:36.014Z,6.23
2023-05-24T00:13:05.118Z,6.16
2023-05-24T00:15:33.166Z,6.28
2023-05-24T00:18:01.321Z,6.16
2023-05-24T00:20:29.582Z,6.12
2023-05-24T00:22:57.691Z,6.12
2023-05-24T00:25:26.029Z,6.26
2023-05-24T00:27:55.564Z,6.32
2023-05-24T00:30:23.605Z,6.32
2023-05-24T00:32:51.696Z,6.15
2023-05-24T00:35:19.885Z,6.33
2023-05-24T00:37:48.270Z,6.22
2023-05-24T00:40:16.400Z,6.13
2023-05-24T00:42:44.418Z,6.29
2023-05-24T00:45:14.230Z,6.21
2023-05-24T00:47:42.961Z,6.24
2023-05-24T00:50:13.291Z,6.25
2023-05-24T00:52:42.383Z,6.36
2023-05-24T00:55:11.377Z,6.32
2023-05-24T00:57:40.149Z,6.28
2023-05-24T01:00:09.596Z,6.31
2023-05-24T01:02:39.491Z,6.30
2023-05-24T01:05:09.347Z,6.07
2023-05-24T01:07:47.287Z,6.10
2023-05-24T01:10:23.305Z,6.19
2023-05-24T01:12:57.663Z,6.17
2023-05-24T01:15:31.566Z,6.04
2023-05-24T01:18:06.468Z,5.94
2023-05-24T01:20:38.457Z,5.93
2023-05-24T01:23:19.946Z,6.09
2023-05-24T01:26:13.235Z,6.04
2023-05-24T01:28:44.440Z,6.02
2023-05-24T01:31:14.428Z,6.06
2023-05-24T01:33:43.867Z,6.08
2023-05-24T01:36:12.115Z,6.23
2023-05-24T01:38:42.105Z,6.24
2023-05-24T01:41:19.491Z,6.41
2023-05-24T01:43:55.136Z,6.51
2023-05-24T01:46:31.290Z,6.36
2023-05-24T01:49:08.093Z,6.47
2023-05-24T01:51:41.338Z,6.40
2023-05-24T01:54:10.469Z,6.26
2023-05-24T01:56:40.475Z,6.33
2023-05-24T01:59:10.867Z,6.34
2023-05-24T02:01:39.687Z,6.34
2023-05-24T02:04:08.214Z,6.31
2023-05-24T02:06:36.938Z,6.40
2023-05-24T02:09:06.632Z,6.47
2023-05-24T02:11:34.993Z,6.60
2023-05-24T02:14:04.552Z,6.75
2023-05-24T02:16:35.034Z,6.86
2023-05-24T02:19:03.370Z,6.88
2023-05-24T02:21:32.811Z,7.01
2023-05-24T02:24:00.807Z,7.01
2023-05-24T02:26:31.398Z,7.06
2023-05-24T02:29:02.065Z,7.01
2023-05-24T02:31:31.217Z,6.97
2023-05-24T02:34:02.261Z,6.69
2023-05-24T02:36:30.660Z,6.79
2023-05-24T02:38:58.715Z,6.84
2023-05-24T02:41:27.832Z,6.78
2023-05-24T02:43:56.162Z,6.75
2023-05-24T02:46:24.764Z,6.78
2023-05-24T02:48:52.830Z,6.77
2023-05-24T02:51:22.284Z,6.80
2023-05-24T02:53:50.881Z,6.93
2023-05-24T02:56:19.238Z,7.10
2023-05-24T02:58:48.147Z,7.14
2023-05-24T03:01:17.558Z,7.04
2023-05-24T03:03:45.639Z,7.16
2023-05-24T03:06:15.430Z,7.12
2023-05-24T03:08:46.430Z,7.03
2023-05-24T03:11:15.607Z,6.98
2023-05-24T03:13:44.417Z,7.17
2023-05-24T03:16:14.606Z,7.06
2023-05-24T03:18:42.715Z,6.95
2023-05-24T03:21:11.015Z,7.02
2023-05-24T03:23:39.544Z,7.14
2023-05-24T03:26:13.262Z,7.17
2023-05-24T03:28:42.223Z,7.14
2023-05-24T03:31:10.376Z,7.15
2023-05-24T03:33:38.400Z,7.13
2023-05-24T03:36:07.824Z,7.05
2023-05-24T03:38:35.924Z,7.13
2023-05-24T03:41:04.009Z,7.11
2023-05-24T03:43:35.129Z,7.07
2023-05-24T03:46:03.798Z,6.96
2023-05-24T03:48:31.868Z,7.05
2023-05-24T03:50:59.961Z,6.97
2023-05-24T03:53:29.173Z,6.92
2023-05-24T03:55:57.175Z,7.02
2023-05-24T03:58:25.188Z,6.99
2023-05-24T04:00:55.110Z,7.20
2023-05-24T04:03:26.172Z,7.28
2023-05-24T04:05:55.603Z,7.37
2023-05-24T04:08:23.676Z,7.41
2023-05-24T04:10:51.836Z,7.38
2023-05-24T04:13:19.822Z,7.46
2023-05-24T04:15:47.873Z,7.39
2023-05-24T04:18:17.547Z,7.47
2023-05-24T04:20:45.773Z,7.72
2023-05-24T04:23:13.957Z,7.78
2023-05-24T04:25:42.177Z,7.64
2023-05-24T04:28:10.570Z,7.87
2023-05-24T04:30:38.745Z,7.98
2023-05-24T04:33:07.038Z,8.01
2023-05-24T04:35:36.709Z,8.07
2023-05-24T04:38:04.830Z,8.23
2023-05-24T04:40:32.830Z,8.15
2023-05-24T04:43:01.260Z,8.28
2023-05-24T04:45:30.818Z,8.50
2023-05-24T04:47:58.752Z,8.45
2023-05-24T04:50:30.589Z,8.60
2023-05-24T04:53:00.991Z,8.70
2023-05-24T04:55:39.205Z,8.73
2023-05-24T04:58:09.787Z,8.63
2023-05-24T05:00:51.362Z,8.79
2023-05-24T05:03:21.589Z,8.85
2023-05-24T05:06:05.153Z,9.22
2023-05-24T05:09:09.628Z,9.26
2023-05-24T05:11:40.071Z,8.94
2023-05-24T05:14:15.337Z,9.14
2023-05-24T05:16:46.608Z,9.02
2023-05-24T05:19:14.733Z,8.96
2023-05-24T05:21:42.866Z,9.02
2023-05-24T05:24:16.461Z,8.96
2023-05-24T05:26:49.672Z,9.21
2023-05-24T05:29:18.737Z,9.13
2023-05-24T05:31:48.169Z,9.30
2023-05-24T05:34:16.584Z,9.49
2023-05-24T05:36:44.740Z,9.56
2023-05-24T05:39:14.787Z,9.86
2023-05-24T05:41:45.981Z,10.27
2023-05-24T05:44:15.160Z,10.32
2023-05-24T05:52:03.688Z,10.47
2023-05-24T05:53:23.330Z,11.08
2023-05-24T05:55:52.856Z,11.18
2023-05-24T05:58:21.146Z,11.25
2023-05-24T06:00:49.195Z,11.31
2023-05-24T06:03:17.398Z,11.68
2023-05-24T06:05:45.546Z,11.54
2023-05-24T06:08:16.143Z,11.90
2023-05-24T06:10:45.777Z,11.86
2023-05-24T06:13:17.300Z,11.83
2023-05-24T06:15:46.005Z,11.80
2023-05-24T06:18:15.505Z,12.13
2023-05-24T06:20:44.963Z,11.70
2023-05-24T06:23:13.298Z,12.25
2023-05-24T06:25:43.933Z,11.96
2023-05-24T06:28:11.893Z,12.37
2023-05-24T06:30:42.648Z,13.00
2023-05-24T06:33:11.436Z,12.88
2023-05-24T06:35:39.524Z,12.80
2023-05-24T06:38:07.973Z,12.70
2023-05-24T06:40:36.032Z,12.78
2023-05-24T06:43:04.350Z,13.32
2023-05-24T06:45:34.733Z,13.59
2023-05-24T06:48:04.408Z,13.59
2023-05-24T06:50:32.506Z,14.17
2023-05-24T06:53:00.568Z,13.10
2023-05-24T06:55:29.069Z,13.07
2023-05-24T06:57:57.154Z,13.24
2023-05-24T07:00:25.540Z,13.18
2023-05-24T07:02:55.117Z,12.67
2023-05-24T07:05:24.679Z,14.13
2023-05-24T07:07:52.734Z,14.01
2023-05-24T07:10:21.135Z,13.67
2023-05-24T07:12:49.310Z,13.44
2023-05-24T07:15:17.361Z,13.60
2023-05-24T07:17:45.502Z,13.92
2023-05-24T07:20:14.890Z,13.80
2023-05-24T07:22:46.578Z,13.54
2023-05-24T07:25:14.718Z,13.30
2023-05-24T07:27:42.836Z,13.13
2023-05-24T07:30:23.632Z,12.82
2023-05-24T07:32:59.081Z,12.73
2023-05-24T07:35:28.679Z,13.15
2023-05-24T07:37:58.239Z,13.29
2023-05-24T07:40:26.661Z,13.48
2023-05-24T07:42:56.154Z,13.91
2023-05-24T07:45:25.662Z,13.60
2023-05-24T07:47:56.010Z,13.37
2023-05-24T07:50:25.275Z,13.29
2023-05-24T07:52:53.374Z,13.89
2023-05-24T07:55:22.974Z,13.69
2023-05-24T07:57:50.954Z,13.74
2023-05-24T08:00:23.248Z,13.87
2023-05-24T08:02:52.382Z,13.85
2023-05-24T08:05:20.884Z,14.85
2023-05-24T08:07:49.337Z,14.19
2023-05-24T08:10:18.586Z,13.77
2023-05-24T08:12:50.090Z,13.78
2023-05-24T08:15:18.410Z,13.29
2023-05-24T08:17:46.422Z,13.53
2023-05-24T08:20:17.060Z,13.92
2023-05-24T08:22:48.177Z,14.48
2023-05-24T08:25:17.224Z,14.11
2023-05-24T08:27:47.742Z,14.25
2023-05-24T08:30:16.044Z,14.12
2023-05-24T08:32:46.218Z,14.39
2023-05-24T08:37:45.723Z,15.40
2023-05-24T08:40:14.297Z,16.67
2023-05-24T08:42:42.927Z,17.60
2023-05-24T08:45:14.428Z,18.18
2023-05-24T08:47:43.569Z,16.60
2023-05-24T08:50:12.561Z,18.80
2023-05-24T08:52:41.607Z,19.58
2023-05-24T08:55:10.875Z,18.37
2023-05-24T08:57:41.593Z,18.05
2023-05-24T09:00:13.219Z,18.05
2023-05-24T09:02:45.503Z,18.78
2023-05-24T09:05:16.913Z,17.35
2023-05-24T09:07:47.294Z,17.21
2023-05-24T09:10:16.517Z,15.74
2023-05-24T09:12:46.845Z,15.63
2023-05-24T09:15:16.368Z,16.27
2023-05-24T09:17:45.037Z,16.80
2023-05-24T09:20:14.976Z,16.28
2023-05-24T09:22:44.349Z,16.04
2023-05-24T09:25:15.676Z,15.63
2023-05-24T09:27:51.976Z,15.02
2023-05-24T09:30:22.338Z,16.08
2023-05-24T09:32:59.134Z,16.26
2023-05-24T09:35:28.659Z,15.93
2023-05-24T09:38:00.170Z,16.60
2023-05-24T09:40:29.523Z,16.48
2023-05-24T09:43:10.091Z,17.44
2023-05-24T09:45:50.451Z,18.29
2023-05-24T09:48:22.830Z,17.96
2023-05-24T09:51:06.528Z,18.19
2023-05-24T09:54:29.224Z,18.26
2023-05-24T09:57:19.312Z,17.47
2023-05-24T10:00:16.536Z,17.08
2023-05-24T10:02:53.513Z,17.63
2023-05-24T10:05:28.899Z,18.36
2023-05-24T10:08:29.971Z,17.57
2023-05-24T10:11:21.292Z,18.10
2023-05-24T10:13:52.600Z,17.84
2023-05-24T10:16:22.131Z,16.55
2023-05-24T10:18:54.569Z,17.01
2023-05-24T10:21:28.361Z,18.64
2023-05-24T10:24:03.488Z,17.07
2023-05-24T10:26:33.856Z,16.84
2023-05-24T10:29:07.833Z,16.05
2023-05-24T10:31:41.447Z,16.99
2023-05-24T10:34:11.520Z,17.39
2023-05-24T10:36:41.314Z,17.88
2023-05-24T10:39:12.560Z,16.99
2023-05-24T10:41:42.050Z,16.66
2023-05-24T10:44:19.695Z,17.62
2023-05-24T10:47:10.811Z,17.05
2023-05-24T10:49:40.945Z,16.39
2023-05-24T10:52:11.520Z,15.84
2023-05-24T10:54:46.951Z,15.00
2023-05-24T10:57:25.735Z,14.96
2023-05-24T10:59:53.853Z,14.84
2023-05-24T11:02:23.439Z,15.13
2023-05-24T11:04:56.686Z,15.02
2023-05-24T11:07:25.408Z,15.48
2023-05-24T11:10:00.059Z,15.35
2023-05-24T11:12:34.656Z,15.14
2023-05-24T11:15:04.407Z,14.62
2023-05-24T11:17:32.534Z,14.94
2023-05-24T11:20:05.687Z,15.02
2023-05-24T11:22:34.262Z,14.79
2023-05-24T11:25:08.829Z,14.93
2023-05-24T11:27:43.566Z,15.03
2023-05-24T11:30:13.291Z,14.88
2023-05-24T11:32:42.688Z,15.31
2023-05-24T11:35:12.512Z,15.86
2023-05-24T11:40:16.320Z,15.72
2023-05-24T11:42:45.146Z,15.78
2023-05-24T11:45:13.996Z,15.55
2023-05-24T11:47:42.363Z,16.53
2023-05-24T11:50:16.125Z,16.14
2023-05-24T11:52:44.243Z,15.91
2023-05-24T11:55:17.009Z,15.70
2023-05-24T11:57:53.199Z,15.39
2023-05-24T12:00:26.365Z,14.87
2023-05-24T12:02:58.724Z,14.68
2023-05-24T12:05:32.115Z,15.05
2023-05-24T12:08:05.232Z,14.81
2023-05-24T12:10:40.865Z,14.42
2023-05-24T12:13:22.560Z,14.19
2023-05-24T12:15:55.858Z,14.66
2023-05-24T12:18:28.079Z,14.67
2023-05-24T12:20:59.752Z,14.57
2023-05-24T12:23:46.893Z,14.79
2023-05-24T12:26:18.992Z,14.88
2023-05-24T12:28:49.277Z,15.40
2023-05-24T12:31:17.534Z,15.02
2023-05-24T12:33:46.372Z,15.02
2023-05-24T12:36:16.785Z,14.77
2023-05-24T12:38:44.867Z,14.72
2023-05-24T12:41:18.708Z,14.97
2023-05-24T12:43:47.059Z,15.00
2023-05-24T12:46:17.833Z,15.03
2023-05-24T12:48:46.162Z,14.97
2023-05-24T12:51:15.819Z,15.25
2023-05-24T12:53:48.844Z,15.48
2023-05-24T12:56:18.671Z,15.67
2023-05-24T12:59:02.775Z,15.14
2023-05-24T13:01:33.425Z,15.28
2023-05-24T13:04:42.555Z,15.52
2023-05-24T13:07:16.112Z,14.99
2023-05-24T13:09:44.689Z,15.76
2023-05-24T13:12:15.504Z,16.01
2023-05-24T13:14:52.914Z,16.36
2023-05-24T13:17:27.527Z,16.09
2023-05-24T13:20:01.602Z,16.21
2023-05-24T13:22:39.971Z,15.89
2023-05-24T13:25:14.319Z,15.76
2023-05-24T13:27:42.670Z,15.79
2023-05-24T13:30:12.814Z,15.95
2023-05-24T13:32:44.816Z,15.20
2023-05-24T13:35:17.760Z,15.53
2023-05-24T13:37:48.714Z,15.18
2023-05-24T13:40:22.437Z,14.71
2023-05-24T13:42:52.775Z,14.90
2023-05-24T13:49:51.826Z,14.95
2023-05-24T13:58:11.806Z,15.25
2023-05-24T14:08:02.399Z,15.36
2023-05-24T14:24:02.733Z,14.80
2023-05-24T14:27:18.336Z,15.75
2023-05-24T14:30:02.125Z,16.41
2023-05-24T14:32:38.298Z,16.76
2023-05-24T14:35:17.152Z,16.45
2023-05-24T14:37:56.452Z,15.63
2023-05-24T14:41:08.465Z,15.83
2023-05-24T14:43:53.736Z,16.69
2023-05-24T14:46:23.165Z,16.64
2023-05-24T14:48:56.746Z,16.27
2023-05-24T14:51:30.947Z,16.38
2023-05-24T14:53:59.783Z,15.94
2023-05-24T14:56:36.233Z,16.20
2023-05-24T14:59:07.925Z,15.59
2023-05-24T15:01:44.805Z,15.47
2023-05-24T15:04:23.926Z,15.24
2023-05-24T15:06:58.542Z,15.66
2023-05-24T15:10:07.874Z,15.81
2023-05-24T15:12:38.199Z,18.27
2023-05-24T15:15:45.492Z,20.24
2023-05-24T15:18:14.341Z,19.24
2023-05-24T15:21:51.583Z,17.31
2023-05-24T15:24:19.708Z,16.49
2023-05-24T15:26:48.721Z,16.85
2023-05-24T15:29:18.240Z,18.00
2023-05-24T15:31:47.594Z,18.00
2023-05-24T15:34:23.678Z,17.54
2023-05-24T15:36:54.475Z,16.49
2023-05-24T15:39:22.993Z,16.94
2023-05-24T15:41:59.441Z,16.95
2023-05-24T15:44:28.871Z,17.41
2023-05-24T15:46:58.248Z,16.71
2023-05-24T15:49:28.676Z,16.40
2023-05-24T15:52:04.263Z,16.25
2023-05-24T15:54:34.584Z,16.82
2023-05-24T15:57:09.245Z,17.70
2023-05-24T15:59:42.747Z,19.50
2023-05-24T16:02:11.115Z,18.68
2023-05-24T16:04:40.879Z,17.28
2023-05-24T16:07:10.076Z,17.34
2023-05-24T16:09:38.411Z,16.65
2023-05-24T16:12:16.486Z,17.02
2023-05-24T16:15:47.303Z,17.07
2023-05-24T16:22:05.175Z,15.88
2023-05-24T16:24:34.288Z,15.66
2023-05-24T16:27:03.396Z,15.74
2023-05-24T16:29:33.095Z,15.14
2023-05-24T16:32:02.620Z,15.31
2023-05-24T16:37:23.311Z,14.75
2023-05-24T16:39:51.355Z,14.47
2023-05-24T16:42:22.344Z,14.27
2023-05-24T16:44:50.792Z,14.55
2023-05-24T16:47:19.544Z,15.40
2023-05-24T16:49:47.634Z,17.29
2023-05-24T16:52:16.848Z,18.09
2023-05-24T16:54:46.471Z,17.34
2023-05-24T16:57:15.034Z,16.10
2023-05-24T16:59:45.724Z,15.68
2023-05-24T17:02:13.972Z,15.10
2023-05-24T17:04:42.167Z,15.28
2023-05-24T17:07:12.337Z,15.41
2023-05-24T17:09:41.345Z,16.24
2023-05-24T17:13:15.552Z,16.70
2023-05-24T17:15:58.125Z,15.74
2023-05-24T17:19:20.854Z,15.71
2023-05-24T17:26:30.787Z,14.80
2023-05-24T17:29:08.220Z,14.59
2023-05-24T17:32:08.819Z,14.48
2023-05-24T17:49:21.654Z,13.59
2023-05-24T18:06:09.880Z,14.83
2023-05-24T18:12:28.294Z,15.65
2023-05-24T18:29:30.355Z,16.07
2023-05-24T19:10:54.185Z,12.62
2023-05-24T19:13:23.152Z,12.54
2023-05-24T19:15:58.599Z,12.42
2023-05-24T19:18:27.025Z,12.07
2023-05-24T19:20:56.847Z,11.89
2023-05-24T19:23:32.984Z,11.98
2023-05-24T19:26:15.394Z,11.75
2023-05-24T19:29:02.757Z,11.52
2023-05-24T19:44:44.057Z,10.90
2023-05-24T19:47:13.051Z,10.73
2023-05-24T19:49:41.142Z,10.71
2023-05-24T19:52:09.243Z,10.50
2023-05-24T19:54:38.212Z,10.45
2023-05-24T19:57:11.925Z,10.42
2023-05-24T19:59:40.206Z,10.20
2023-05-24T20:02:09.763Z,10.19
2023-05-24T20:04:46.568Z,10.34
2023-05-24T20:07:15.720Z,10.56
2023-05-24T20:10:36.065Z,10.63
2023-05-24T20:13:05.026Z,10.75
2023-05-24T20:15:53.745Z,10.97
2023-05-24T20:18:26.471Z,11.00
2023-05-24T20:20:57.473Z,11.10
2023-05-24T20:23:27.381Z,11.13
2023-05-24T20:25:56.494Z,11.13
2023-05-24T20:28:30.147Z,11.06
2023-05-24T20:31:01.204Z,11.09
2023-05-24T20:33:30.686Z,11.05
2023-05-24T20:35:59.264Z,10.92
2023-05-24T20:38:28.560Z,10.69
2023-05-24T20:40:56.814Z,10.51
2023-05-24T20:43:25.010Z,10.35
2023-05-24T20:45:54.073Z,10.32
2023-05-24T20:48:23.345Z,10.05
2023-05-24T20:50:53.354Z,9.85
2023-05-24T20:53:21.545Z,9.77
2023-05-24T20:55:50.189Z,9.39
2023-05-24T20:58:25.530Z,9.40
2023-05-24T21:00:54.674Z,9.13
2023-05-24T21:03:23.009Z,9.03
2023-05-24T21:05:52.745Z,8.87
2023-05-24T21:08:20.913Z,8.69
2023-05-24T21:10:48.760Z,8.83
2023-05-24T21:13:16.964Z,8.68
2023-05-24T21:15:45.706Z,8.77
2023-05-24T21:18:14.117Z,8.90
2023-05-24T21:20:42.339Z,8.56
2023-05-24T21:23:12.887Z,8.73
2023-05-24T21:25:41.465Z,8.59
2023-05-24T21:28:11.395Z,8.60
2023-05-24T21:30:39.304Z,8.45
2023-05-24T21:33:07.923Z,8.25
2023-05-24T21:35:38.475Z,8.22
2023-05-24T21:38:06.712Z,8.27
2023-05-24T21:40:36.468Z,8.16
2023-05-24T21:43:05.228Z,8.03
2023-05-24T21:45:33.561Z,7.89
2023-05-24T21:48:01.596Z,7.81
2023-05-24T21:50:29.620Z,7.69
2023-05-24T21:52:57.820Z,7.48
2023-05-24T21:55:26.100Z,7.52
2023-05-24T21:57:56.621Z,7.53
2023-05-24T22:00:24.626Z,7.53
2023-05-24T22:02:52.695Z,7.25
2023-05-24T22:05:20.990Z,7.45
2023-05-24T22:07:49.319Z,7.58
2023-05-24T22:10:18.693Z,7.58
2023-05-24T22:12:48.539Z,7.55
2023-05-24T22:15:18.024Z,7.95
2023-05-24T22:17:48.265Z,8.01
2023-05-24T22:20:16.429Z,7.52
2023-05-24T22:22:48.425Z,7.24
2023-05-24T22:25:19.664Z,7.36
2023-05-24T22:27:48.513Z,7.03
2023-05-24T22:30:19.585Z,6.95
2023-05-24T22:32:47.484Z,6.67
2023-05-24T22:35:15.936Z,6.75
2023-05-24T22:37:44.158Z,6.98
2023-05-24T22:40:13.767Z,7.51
2023-05-24T22:42:41.827Z,7.12
2023-05-24T22:45:10.854Z,6.80
2023-05-24T22:47:40.981Z,6.76
2023-05-24T22:50:10.112Z,6.67
2023-05-24T22:52:42.815Z,6.70
2023-05-24T22:55:11.986Z,6.58
2023-05-24T22:57:39.821Z,6.50
2023-05-24T23:00:09.388Z,6.44
2023-05-24T23:02:41.244Z,6.37
2023-05-24T23:12:44.555Z,6.16
2023-05-24T23:15:16.767Z,6.38
2023-05-24T23:17:48.249Z,6.47
2023-05-24T23:20:16.620Z,6.34
2023-05-24T23:22:44.796Z,6.45
2023-05-24T23:25:12.832Z,6.54
2023-05-24T23:27:41.563Z,6.67
2023-05-24T23:30:10.114Z,6.76
2023-05-24T23:32:38.043Z,6.61
2023-05-24T23:35:08.467Z,6.59
2023-05-24T23:37:36.491Z,6.53
2023-05-24T23:40:06.622Z,6.61
2023-05-24T23:42:35.023Z,6.42
2023-05-24T23:45:03.248Z,6.52
2023-05-24T23:47:31.267Z,6.27
2023-05-24T23:49:59.295Z,6.25
2023-05-24T23:52:28.732Z,6.24
2023-05-24T23:54:56.811Z,6.18
2023-05-24T23:57:25.435Z,6.33
